createdAt,value
2018-11-29T05:16:35.590Z,1020.88
2018-11-29T06:39:34.769Z,1020.52
2018-11-29T06:40:34.665Z,1020.43
2018-11-29T06:41:34.655Z,1020.42
2018-11-29T06:42:34.645Z,1020.42
2018-11-29T06:43:34.637Z,1020.42
2018-11-29T06:44:34.630Z,1020.39
2018-11-29T06:45:34.611Z,1020.43
2018-11-29T06:46:34.599Z,1020.45
2018-11-29T06:47:34.590Z,1020.36
2018-11-29T06:48:34.577Z,1020.48
2018-11-29T06:49:34.569Z,1020.42
2018-11-29T06:50:34.557Z,1020.49
2018-11-29T06:51:34.551Z,1020.45
2018-11-29T06:52:34.537Z,1020.42
2018-11-29T06:53:34.526Z,1020.39
2018-11-29T06:54:34.520Z,1020.35
2018-11-29T06:55:34.503Z,1020.48
2018-11-29T06:56:34.491Z,1020.41
2018-11-29T06:57:34.480Z,1020.47
2018-11-29T06:58:34.470Z,1020.46
2018-11-29T06:59:34.457Z,1020.43
2018-11-29T07:00:34.451Z,1020.48
2018-11-29T07:01:34.435Z,1020.38
2018-11-29T07:02:34.425Z,1020.41
2018-11-29T07:03:34.420Z,1020.60
2018-11-29T07:04:34.402Z,1020.51
2018-11-29T07:05:34.392Z,1020.48
2018-11-29T07:06:34.382Z,1020.44
2018-11-29T07:07:34.379Z,1020.47
2018-11-29T07:08:34.366Z,1020.42
2018-11-29T07:09:34.349Z,1020.69
2018-11-29T07:10:34.337Z,1020.45
2018-11-29T07:11:34.329Z,1020.49
2018-11-29T07:12:34.320Z,1020.42
2018-11-29T07:13:34.304Z,1020.49
2018-11-29T07:14:34.300Z,1020.42
2018-11-29T07:15:34.293Z,1020.53
2018-11-29T07:16:34.277Z,1020.48
2018-11-29T07:17:34.263Z,1020.52
2018-11-29T07:18:34.255Z,1020.46
2018-11-29T07:19:34.243Z,1020.44
2018-11-29T07:20:34.228Z,1020.54
2018-11-29T07:21:34.218Z,1020.40
2018-11-29T07:22:34.208Z,1020.41
2018-11-29T07:23:34.204Z,1020.45
2018-11-29T07:24:34.191Z,1020.31
2018-11-29T07:25:34.178Z,1020.32
2018-11-29T07:26:34.166Z,1020.37
2018-11-29T07:27:34.153Z,1020.36
2018-11-29T07:28:34.142Z,1020.38
2018-11-29T07:29:34.131Z,1020.36
2018-11-29T07:30:34.122Z,1020.46
2018-11-29T07:31:34.109Z,1020.40
2018-11-29T07:32:34.098Z,1020.31
2018-11-29T07:33:34.090Z,1020.47
2018-11-29T07:34:34.076Z,1020.43
2018-11-29T07:35:34.066Z,1020.40
2018-11-29T07:36:34.054Z,1020.49
2018-11-29T07:37:34.046Z,1020.43
2018-11-29T07:38:34.031Z,1020.50
2018-11-29T07:39:34.023Z,1020.44
2018-11-29T07:40:34.016Z,1020.49
2018-11-29T07:41:34.004Z,1020.46
2018-11-29T07:42:33.987Z,1020.55
2018-11-29T07:43:33.977Z,1020.59
2018-11-29T07:44:33.973Z,1020.52
2018-11-29T07:45:33.962Z,1020.53
2018-11-29T07:46:33.951Z,1020.48
2018-11-29T07:47:33.936Z,1020.48
2018-11-29T07:48:33.924Z,1020.42
2018-11-29T07:49:33.911Z,1020.39
2018-11-29T07:50:33.901Z,1020.42
2018-11-29T07:51:33.891Z,1020.54
2018-11-29T07:52:33.877Z,1020.43
2018-11-29T07:53:33.866Z,1020.40
2018-11-29T07:54:33.856Z,1020.48
2018-11-29T07:55:33.847Z,1020.46
2018-11-29T07:56:33.841Z,1020.41
2018-11-29T07:57:33.823Z,1020.37
2018-11-29T07:58:33.811Z,1020.27
2018-11-29T07:59:33.809Z,1020.32
2018-11-29T08:00:33.796Z,1020.28
2018-11-29T08:01:33.780Z,1020.13
2018-11-29T08:02:33.779Z,1020.20
2018-11-29T08:03:33.756Z,1020.09
2018-11-29T08:04:33.754Z,1020.12
2018-11-29T08:05:33.737Z,1020.20
2018-11-29T08:06:33.725Z,1020.18
2018-11-29T08:07:33.713Z,1020.17
2018-11-29T08:08:33.701Z,1020.13
2018-11-29T08:09:33.692Z,1020.20
2018-11-29T08:10:33.690Z,1020.16
2018-11-29T08:11:33.668Z,1020.22
2018-11-29T08:12:33.657Z,1020.22
2018-11-29T08:13:33.651Z,1020.12
2018-11-29T08:14:33.634Z,1020.18
2018-11-29T08:15:33.624Z,1020.10
2018-11-29T08:16:33.612Z,1020.11
2018-11-29T08:17:33.605Z,1020.29
2018-11-29T08:18:33.590Z,1020.13
2018-11-29T08:19:33.586Z,1020.08
2018-11-29T08:20:33.568Z,1020.16
2018-11-29T08:21:33.558Z,1020.11
2018-11-29T08:22:33.547Z,1020.20
2018-11-29T08:23:33.538Z,1020.12
2018-11-29T08:24:33.525Z,1020.10
2018-11-29T08:25:33.516Z,1020.01
2018-11-29T08:26:33.503Z,1020.04
2018-11-29T08:27:33.743Z,1019.99
2018-11-29T08:28:33.486Z,1020.07
2018-11-29T08:29:35.151Z,1020.10
2018-11-29T08:30:33.477Z,1019.95
2018-11-29T08:31:33.447Z,1020.00
2018-11-29T08:32:33.435Z,1020.06
2018-11-29T08:33:33.426Z,1019.99
2018-11-29T08:34:33.415Z,1019.94
2018-11-29T08:35:33.413Z,1020.10
2018-11-29T08:36:33.395Z,1019.89
2018-11-29T08:37:33.383Z,1019.95
2018-11-29T08:38:33.368Z,1019.91
2018-11-29T08:39:33.359Z,1020.00
2018-11-29T08:40:33.347Z,1019.92
2018-11-29T08:41:33.335Z,1020.00
2018-11-29T08:42:33.325Z,1019.90
2018-11-29T08:43:33.370Z,1019.77
2018-11-29T08:44:33.309Z,1019.74
2018-11-29T08:45:33.291Z,1019.87
2018-11-29T08:46:33.280Z,1019.89
2018-11-29T08:47:33.273Z,1019.78
2018-11-29T08:49:33.247Z,1019.95
2018-11-29T08:50:33.238Z,1020.00
2018-11-29T08:51:33.224Z,1019.93
2018-11-29T08:52:33.214Z,1019.86
2018-11-29T08:53:33.204Z,1019.90
2018-11-29T08:54:33.191Z,1020.03
2018-11-29T08:55:33.183Z,1020.01
2018-11-29T08:56:33.169Z,1020.03
2018-11-29T08:57:33.161Z,1019.96
2018-11-29T08:58:33.146Z,1019.91
2018-11-29T08:59:33.171Z,1019.99
2018-11-29T09:00:33.128Z,1019.94
2018-11-29T09:01:33.115Z,1019.86
2018-11-29T09:02:33.109Z,1019.90
2018-11-29T09:03:33.091Z,1019.84
2018-11-29T09:04:33.079Z,1019.89
2018-11-29T09:05:34.141Z,1019.76
2018-11-29T09:06:33.060Z,1019.77
2018-11-29T09:07:33.045Z,1019.80
2018-11-29T09:08:33.039Z,1019.82
2018-11-29T09:09:33.033Z,1019.81
2018-11-29T09:10:33.012Z,1019.80
2018-11-29T09:11:33.006Z,1019.78
2018-11-29T09:12:32.989Z,1019.77
2018-11-29T09:13:32.980Z,1019.87
2018-11-29T09:14:32.970Z,1020.00
2018-11-29T09:15:32.955Z,1019.84
2018-11-29T09:16:32.946Z,1019.81
2018-11-29T09:17:32.939Z,1019.89
2018-11-29T09:18:32.929Z,1019.89
2018-11-29T09:19:37.412Z,1019.73
2018-11-29T09:20:32.899Z,1019.77
2018-11-29T09:21:32.945Z,1019.71
2018-11-29T09:22:32.878Z,1019.67
2018-11-29T09:23:32.867Z,1019.80
2018-11-29T09:24:32.854Z,1019.88
2018-11-29T09:25:32.845Z,1019.85
2018-11-29T09:26:32.831Z,1019.71
2018-11-29T09:27:32.820Z,1019.82
2018-11-29T09:28:32.811Z,1019.71
2018-11-29T09:29:32.799Z,1019.71
2018-11-29T09:30:32.786Z,1019.61
2018-11-29T09:31:32.775Z,1019.59
2018-11-29T09:32:32.766Z,1019.66
2018-11-29T09:33:32.753Z,1019.63
2018-11-29T09:34:32.742Z,1019.65
2018-11-29T09:35:32.731Z,1019.60
2018-11-29T09:36:32.719Z,1019.55
2018-11-29T09:37:32.711Z,1019.45
2018-11-29T09:38:32.697Z,1019.51
2018-11-29T09:39:32.698Z,1019.40
2018-11-29T09:40:32.675Z,1019.39
2018-11-29T09:41:32.669Z,1019.38
2018-11-29T09:42:32.657Z,1019.33
2018-11-29T09:43:32.646Z,1019.41
2018-11-29T09:44:32.637Z,1019.43
2018-11-29T09:45:32.621Z,1019.43
2018-11-29T09:46:32.612Z,1019.45
2018-11-29T09:47:32.601Z,1019.33
2018-11-29T09:48:32.586Z,1019.54
2018-11-29T09:49:32.576Z,1019.43
2018-11-29T09:50:32.570Z,1019.31
2018-11-29T09:51:32.562Z,1019.30
2018-11-29T09:52:32.550Z,1019.47
2018-11-29T09:53:33.095Z,1019.39
2018-11-29T09:54:32.520Z,1019.28
2018-11-29T09:55:32.509Z,1019.21
2018-11-29T09:56:32.506Z,1019.12
2018-11-29T09:57:33.505Z,1019.14
2018-11-29T09:58:32.475Z,1019.12
2018-11-29T09:59:32.465Z,1019.10
2018-11-29T10:00:32.459Z,1019.09
2018-11-29T10:01:32.448Z,1019.01
2018-11-29T10:02:32.431Z,1019.07
2018-11-29T10:03:32.424Z,1019.07
2018-11-29T10:04:32.413Z,1019.11
2018-11-29T10:05:32.422Z,1018.92
2018-11-29T10:06:32.385Z,1019.14
2018-11-29T10:07:32.373Z,1019.21
2018-11-29T10:08:32.364Z,1019.05
2018-11-29T10:09:32.352Z,1019.07
2018-11-29T10:10:32.346Z,1019.01
2018-11-29T10:11:32.336Z,1019.02
2018-11-29T10:12:32.318Z,1019.13
2018-11-29T10:13:32.309Z,1019.06
2018-11-29T10:14:32.296Z,1019.14
2018-11-29T10:15:32.289Z,1019.28
2018-11-29T10:16:33.689Z,1019.04
2018-11-29T10:17:32.265Z,1019.03
2018-11-29T10:18:32.251Z,1019.02
2018-11-29T10:19:32.239Z,1019.03
2018-11-29T10:20:32.227Z,1019.01
2018-11-29T10:21:33.415Z,1018.99
2018-11-29T10:22:32.204Z,1018.94
2018-11-29T10:23:32.199Z,1018.96
2018-11-29T10:24:32.192Z,1019.03
2018-11-29T10:25:32.177Z,1019.07
2018-11-29T10:26:32.165Z,1018.86
2018-11-29T10:27:32.153Z,1018.90
2018-11-29T10:28:32.140Z,1018.85
2018-11-29T10:29:32.249Z,1018.75
2018-11-29T10:30:32.118Z,1018.86
2018-11-29T10:31:32.108Z,1018.74
2018-11-29T10:32:32.094Z,1018.69
2018-11-29T10:33:32.095Z,1018.70
2018-11-29T10:34:32.079Z,1018.72
2018-11-29T10:35:32.061Z,1018.58
2018-11-29T10:36:32.054Z,1018.66
2018-11-29T10:37:32.039Z,1018.61
2018-11-29T10:38:32.035Z,1018.60
2018-11-29T10:39:32.017Z,1018.69
2018-11-29T10:40:32.006Z,1018.70
2018-11-29T10:41:31.994Z,1018.66
2018-11-29T10:42:31.986Z,1018.57
2018-11-29T10:43:31.972Z,1018.57
2018-11-29T10:44:31.965Z,1018.46
2018-11-29T10:45:31.956Z,1018.42
2018-11-29T10:46:31.944Z,1018.45
2018-11-29T10:47:31.937Z,1018.42
2018-11-29T10:48:31.935Z,1018.43
2018-11-29T10:49:31.945Z,1018.50
2018-11-29T10:50:31.951Z,1018.55
2018-11-29T10:51:31.885Z,1018.49
2018-11-29T10:52:31.886Z,1018.48
2018-11-29T10:53:36.999Z,1018.54
2018-11-29T10:54:56.326Z,1018.47
2018-11-29T10:55:56.314Z,1018.55
2018-11-29T10:56:56.310Z,1018.36
2018-11-29T10:57:56.295Z,1018.44
2018-11-29T10:58:56.285Z,1018.40
2018-11-29T10:59:56.273Z,1018.30
2018-11-29T11:00:56.257Z,1018.49
2018-11-29T11:01:56.247Z,1018.57
2018-11-29T11:02:56.236Z,1018.39
2018-11-29T11:03:56.224Z,1018.45
2018-11-29T11:04:56.213Z,1018.43
2018-11-29T11:05:56.199Z,1018.41
2018-11-29T11:06:56.197Z,1018.51
2018-11-29T11:07:56.179Z,1018.41
2018-11-29T11:08:56.170Z,1018.31
2018-11-29T11:09:56.154Z,1018.29
2018-11-29T11:10:56.144Z,1018.27
2018-11-29T11:11:56.133Z,1018.22
2018-11-29T11:12:56.124Z,1018.18
2018-11-29T11:13:56.112Z,1018.21
2018-11-29T11:14:56.106Z,1018.28
2018-11-29T11:15:56.085Z,1018.15
2018-11-29T11:16:56.075Z,1018.14
2018-11-29T11:17:56.062Z,1018.11
2018-11-29T11:18:56.058Z,1018.19
2018-11-29T11:19:56.050Z,1018.19
2018-11-29T11:20:56.032Z,1018.14
2018-11-29T11:21:56.094Z,1018.09
2018-11-29T11:22:56.007Z,1018.19
2018-11-29T11:23:59.284Z,1018.17
2018-11-29T11:24:55.986Z,1018.22
2018-11-29T11:25:55.974Z,1018.18
2018-11-29T11:26:55.961Z,1018.16
2018-11-29T11:27:55.950Z,1018.19
2018-11-29T11:28:55.938Z,1018.21
2018-11-29T11:29:55.927Z,1018.15
2018-11-29T11:30:55.914Z,1018.20
2018-11-29T11:31:55.902Z,1018.20
2018-11-29T11:32:55.892Z,1018.12
2018-11-29T11:33:55.880Z,1018.06
2018-11-29T11:34:55.868Z,1018.13
2018-11-29T11:35:55.862Z,1018.04
2018-11-29T11:36:55.848Z,1018.04
2018-11-29T11:37:55.833Z,1018.05
2018-11-29T11:38:55.825Z,1018.14
2018-11-29T11:39:55.815Z,1018.12
2018-11-29T11:40:55.800Z,1018.10
2018-11-29T11:41:55.787Z,1018.14
2018-11-29T11:42:55.776Z,1018.13
2018-11-29T11:43:55.766Z,1018.06
2018-11-29T11:44:55.754Z,1018.11
2018-11-29T11:45:55.744Z,1018.08
2018-11-29T11:46:55.738Z,1018.15
2018-11-29T11:47:55.722Z,1018.08
2018-11-29T11:48:55.708Z,1018.08
2018-11-29T11:49:55.696Z,1018.03
2018-11-29T11:50:55.685Z,1017.98
2018-11-29T11:51:55.673Z,1018.07
2018-11-29T11:52:55.663Z,1018.01
2018-11-29T11:53:55.660Z,1017.97
2018-11-29T11:54:55.639Z,1017.93
2018-11-29T11:55:55.693Z,1018.03
2018-11-29T11:56:55.620Z,1017.94
2018-11-29T11:57:55.607Z,1017.95
2018-11-29T11:58:55.611Z,1017.91
2018-11-29T11:59:55.591Z,1017.90
2018-11-29T12:00:55.570Z,1017.80
2018-11-29T12:01:55.559Z,1017.83
2018-11-29T12:02:55.548Z,1017.91
2018-11-29T12:03:55.539Z,1017.81
2018-11-29T12:04:55.525Z,1017.83
2018-11-29T12:05:55.517Z,1017.77
2018-11-29T12:06:55.510Z,1017.77
2018-11-29T12:07:55.492Z,1017.67
2018-11-29T12:08:55.479Z,1017.70
2018-11-29T12:09:55.467Z,1017.77
2018-11-29T12:10:55.459Z,1017.71
2018-11-29T12:11:55.451Z,1017.65
2018-11-29T12:12:55.435Z,1017.58
2018-11-29T12:13:55.424Z,1017.58
2018-11-29T12:14:55.413Z,1017.71
2018-11-29T12:15:55.399Z,1017.57
2018-11-29T12:16:55.391Z,1017.64
2018-11-29T12:17:55.386Z,1017.71
2018-11-29T12:19:02.063Z,1017.62
2018-11-29T12:19:56.374Z,1017.48
2018-11-29T12:20:55.343Z,1017.59
2018-11-29T12:21:55.337Z,1017.55
2018-11-29T12:22:55.321Z,1017.63
2018-11-29T12:23:55.310Z,1017.54
2018-11-29T12:24:55.296Z,1017.54
2018-11-29T12:25:55.287Z,1017.74
2018-11-29T12:26:55.274Z,1017.56
2018-11-29T12:27:55.309Z,1017.52
2018-11-29T12:28:55.260Z,1017.60
2018-11-29T12:29:55.246Z,1017.52
2018-11-29T12:30:55.233Z,1017.55
2018-11-29T12:31:55.222Z,1017.42
2018-11-29T12:32:55.205Z,1017.51
2018-11-29T12:33:55.194Z,1017.50
2018-11-29T12:34:55.184Z,1017.42
2018-11-29T12:35:55.174Z,1017.45
2018-11-29T12:37:19.642Z,1017.45
2018-11-29T12:38:19.630Z,1017.46
2018-11-29T12:39:19.619Z,1017.58
2018-11-29T12:40:19.606Z,1017.46
2018-11-29T12:41:19.595Z,1017.40
2018-11-29T12:42:19.591Z,1017.45
2018-11-29T12:43:19.575Z,1017.40
2018-11-29T12:44:19.562Z,1017.53
2018-11-29T12:45:19.553Z,1017.55
2018-11-29T12:46:19.543Z,1017.51
2018-11-29T12:47:19.527Z,1017.46
2018-11-29T12:48:19.515Z,1017.39
2018-11-29T12:49:19.505Z,1017.41
2018-11-29T12:50:19.500Z,1017.31
2018-11-29T12:51:19.482Z,1017.25
2018-11-29T12:52:19.472Z,1017.20
2018-11-29T12:53:19.463Z,1017.19
2018-11-29T12:54:19.448Z,1017.14
2018-11-29T12:55:19.436Z,1017.11
2018-11-29T12:56:19.434Z,1017.07
2018-11-29T12:57:19.413Z,1017.10
2018-11-29T12:58:19.407Z,1017.28
2018-11-29T12:59:19.392Z,1017.06
2018-11-29T13:00:19.386Z,1017.14
2018-11-29T13:01:19.369Z,1016.98
2018-11-29T13:02:19.358Z,1016.97
2018-11-29T13:03:19.349Z,1017.02
2018-11-29T13:04:19.338Z,1017.05
2018-11-29T13:05:19.331Z,1017.13
2018-11-29T13:06:19.313Z,1017.04
2018-11-29T13:07:19.301Z,1017.00
2018-11-29T13:08:19.289Z,1017.08
2018-11-29T13:09:19.277Z,1017.10
2018-11-29T13:10:19.265Z,1016.96
2018-11-29T13:11:19.254Z,1017.07
2018-11-29T13:12:19.248Z,1017.05
2018-11-29T13:13:19.231Z,1017.13
2018-11-29T13:14:19.363Z,1017.02
2018-11-29T13:15:19.434Z,1016.98
2018-11-29T13:16:19.198Z,1017.07
2018-11-29T13:17:19.187Z,1017.07
2018-11-29T13:18:19.175Z,1017.04
2018-11-29T13:19:19.164Z,1017.11
2018-11-29T13:20:19.153Z,1017.00
2018-11-29T13:21:19.142Z,1017.04
2018-11-29T13:22:19.130Z,1017.02
2018-11-29T13:23:19.123Z,1017.09
2018-11-29T13:24:19.107Z,1017.02
2018-11-29T13:25:19.097Z,1017.04
2018-11-29T13:26:19.085Z,1017.14
2018-11-29T13:27:19.074Z,1017.02
2018-11-29T13:28:19.064Z,1017.09
2018-11-29T13:29:19.052Z,1017.06
2018-11-29T13:30:19.044Z,1017.03
2018-11-29T13:31:19.034Z,1017.00
2018-11-29T13:32:19.025Z,1016.99
2018-11-29T13:33:19.011Z,1017.00
2018-11-29T13:34:18.994Z,1017.09
2018-11-29T13:35:18.987Z,1017.13
2018-11-29T13:36:19.012Z,1016.98
2018-11-29T13:37:18.962Z,1017.00
2018-11-29T13:38:18.949Z,1016.92
2018-11-29T13:39:18.948Z,1017.00
2018-11-29T13:41:18.915Z,1016.89
2018-11-29T13:42:18.904Z,1016.86
2018-11-29T13:43:20.895Z,1016.89
2018-11-29T13:44:18.891Z,1016.99
2018-11-29T13:45:18.869Z,1016.81
2018-11-29T13:46:18.857Z,1016.87
2018-11-29T13:47:18.848Z,1016.85
2018-11-29T13:48:18.837Z,1016.95
2018-11-29T13:49:18.830Z,1016.91
2018-11-29T13:50:18.822Z,1016.89
2018-11-29T13:51:18.804Z,1016.71
2018-11-29T13:52:18.797Z,1016.78
2018-11-29T13:53:18.784Z,1016.78
2018-11-29T13:54:18.773Z,1016.75
2018-11-29T13:55:18.883Z,1016.73
2018-11-29T13:56:18.746Z,1016.84
2018-11-29T13:57:18.736Z,1016.78
2018-11-29T13:58:18.723Z,1016.73
2018-11-29T13:59:18.709Z,1016.71
2018-11-29T14:00:18.698Z,1016.69
2018-11-29T14:01:18.687Z,1016.65
2018-11-29T14:02:18.678Z,1016.67
2018-11-29T14:03:18.784Z,1016.65
2018-11-29T14:04:18.654Z,1016.55
2018-11-29T14:05:18.643Z,1016.73
2018-11-29T14:06:18.634Z,1016.50
2018-11-29T14:07:18.624Z,1016.54
2018-11-29T14:08:18.611Z,1016.45
2018-11-29T14:09:18.600Z,1016.54
2018-11-29T14:10:18.592Z,1016.50
2018-11-29T14:11:18.576Z,1016.41
2018-11-29T14:12:18.597Z,1016.41
2018-11-29T14:13:18.571Z,1016.47
2018-11-29T14:14:18.557Z,1016.40
2018-11-29T14:15:18.534Z,1016.43
2018-11-29T14:16:18.521Z,1016.43
2018-11-29T14:17:18.513Z,1016.42
2018-11-29T14:18:18.503Z,1016.34
2018-11-29T14:19:18.495Z,1016.47
2018-11-29T14:20:18.476Z,1016.32
2018-11-29T14:21:18.470Z,1016.34
2018-11-29T14:22:18.457Z,1016.30
2018-11-29T14:23:18.442Z,1016.31
2018-11-29T14:24:18.431Z,1016.43
2018-11-29T14:25:18.420Z,1016.15
2018-11-29T14:26:18.408Z,1016.30
2018-11-29T14:27:18.398Z,1016.32
2018-11-29T14:28:18.429Z,1016.42
2018-11-29T14:29:18.377Z,1016.36
2018-11-29T14:30:18.369Z,1016.34
2018-11-29T14:31:18.352Z,1016.38
2018-11-29T14:32:18.377Z,1016.39
2018-11-29T14:33:18.330Z,1016.44
2018-11-29T14:34:18.320Z,1016.52
2018-11-29T14:35:18.308Z,1016.46
2018-11-29T14:36:18.303Z,1016.53
2018-11-29T14:37:18.285Z,1016.49
2018-11-29T14:38:18.276Z,1016.49
2018-11-29T14:39:18.262Z,1016.50
2018-11-29T14:40:18.252Z,1016.60
2018-11-29T14:41:18.247Z,1016.57
2018-11-29T14:42:18.236Z,1016.64
2018-11-29T14:43:18.220Z,1016.67
2018-11-29T14:44:18.209Z,1016.59
2018-11-29T14:45:18.197Z,1016.56
2018-11-29T14:46:18.186Z,1016.55
2018-11-29T14:47:18.181Z,1016.54
2018-11-29T14:48:18.161Z,1016.49
2018-11-29T14:49:18.151Z,1016.63
2018-11-29T14:50:18.139Z,1016.47
2018-11-29T14:51:18.134Z,1016.57
2018-11-29T14:52:18.117Z,1016.41
2018-11-29T14:53:18.110Z,1016.43
2018-11-29T14:54:18.099Z,1016.36
2018-11-29T14:55:18.091Z,1016.36
2018-11-29T14:56:18.070Z,1016.43
2018-11-29T14:57:18.067Z,1016.43
2018-11-29T14:58:19.799Z,1016.44
2018-11-29T14:59:18.036Z,1016.34
2018-11-29T15:00:18.026Z,1016.42
2018-11-29T15:01:18.013Z,1016.37
2018-11-29T15:02:18.002Z,1016.35
2018-11-29T15:03:18.002Z,1016.36
2018-11-29T15:04:17.979Z,1016.42
2018-11-29T15:05:17.971Z,1016.42
2018-11-29T15:06:17.957Z,1016.44
2018-11-29T15:07:17.951Z,1016.48
2018-11-29T15:08:17.937Z,1016.44
2018-11-29T15:09:17.964Z,1016.34
2018-11-29T15:10:17.910Z,1016.39
2018-11-29T15:11:17.909Z,1016.40
2018-11-29T15:12:17.888Z,1016.36
2018-11-29T15:13:17.876Z,1016.43
2018-11-29T15:14:18.041Z,1016.48
2018-11-29T15:15:17.862Z,1016.39
2018-11-29T15:16:17.844Z,1016.35
2018-11-29T15:17:17.837Z,1016.24
2018-11-29T15:18:17.836Z,1016.44
2018-11-29T15:19:17.850Z,1016.31
2018-11-29T15:20:17.842Z,1016.30
2018-11-29T15:21:17.787Z,1016.41
2018-11-29T15:22:17.786Z,1016.38
2018-11-29T15:23:17.788Z,1016.35
2018-11-29T15:24:17.795Z,1016.38
2018-11-29T15:25:17.744Z,1016.43
2018-11-29T15:26:17.734Z,1016.37
2018-11-29T15:27:17.715Z,1016.44
2018-11-29T15:28:17.704Z,1016.36
2018-11-29T15:29:17.696Z,1016.50
2018-11-29T15:30:17.680Z,1016.43
2018-11-29T15:31:17.670Z,1016.29
2018-11-29T15:32:17.661Z,1016.35
2018-11-29T15:33:17.648Z,1016.28
2018-11-29T15:34:17.636Z,1016.27
2018-11-29T15:35:17.739Z,1016.25
2018-11-29T15:36:17.619Z,1016.34
2018-11-29T15:37:17.601Z,1016.41
2018-11-29T15:38:17.596Z,1016.29
2018-11-29T15:39:17.592Z,1016.32
2018-11-29T15:40:17.569Z,1016.33
2018-11-29T15:41:18.268Z,1016.34
2018-11-29T15:42:17.545Z,1016.34
2018-11-29T15:43:17.534Z,1016.33
2018-11-29T15:44:17.526Z,1016.33
2018-11-29T15:45:17.515Z,1016.34
2018-11-29T15:46:17.497Z,1016.44
2018-11-29T15:47:17.486Z,1016.48
2018-11-29T15:48:17.478Z,1016.49
2018-11-29T15:49:17.463Z,1016.45
2018-11-29T15:50:17.490Z,1016.51
2018-11-29T15:51:17.440Z,1016.42
2018-11-29T15:52:17.427Z,1016.38
2018-11-29T15:53:17.417Z,1016.38
2018-11-29T15:54:17.413Z,1016.33
2018-11-29T15:55:17.395Z,1016.41
2018-11-29T15:56:17.383Z,1016.29
2018-11-29T15:57:17.371Z,1016.23
2018-11-29T15:58:17.363Z,1016.31
2018-11-29T15:59:17.352Z,1016.23
2018-11-29T16:00:17.336Z,1016.28
2018-11-29T16:01:17.326Z,1016.30
2018-11-29T16:02:17.319Z,1016.31
2018-11-29T16:03:17.301Z,1016.30
2018-11-29T16:04:17.294Z,1016.44
2018-11-29T16:05:17.279Z,1016.32
2018-11-29T16:06:17.281Z,1016.36
2018-11-29T16:07:17.255Z,1016.37
2018-11-29T16:08:17.248Z,1016.33
2018-11-29T16:09:17.233Z,1016.38
2018-11-29T16:10:17.238Z,1016.33
2018-11-29T16:11:17.211Z,1016.42
2018-11-29T16:12:17.198Z,1016.38
2018-11-29T16:13:17.194Z,1016.41
2018-11-29T16:14:17.181Z,1016.41
2018-11-29T16:15:17.167Z,1016.37
2018-11-29T16:16:17.156Z,1016.47
2018-11-29T16:17:17.146Z,1016.41
2018-11-29T16:18:17.155Z,1016.43
2018-11-29T16:19:17.119Z,1016.44
2018-11-29T16:20:17.295Z,1016.35
2018-11-29T16:21:17.094Z,1016.44
2018-11-29T16:22:17.085Z,1016.37
2018-11-29T16:23:17.073Z,1016.36
2018-11-29T16:24:17.080Z,1016.32
2018-11-29T16:25:17.050Z,1016.35
2018-11-29T16:26:17.038Z,1016.32
2018-11-29T16:27:17.029Z,1016.37
2018-11-29T16:28:17.015Z,1016.21
2018-11-29T16:29:17.006Z,1016.28
2018-11-29T16:30:16.993Z,1016.20
2018-11-29T16:31:16.981Z,1016.21
2018-11-29T16:32:16.970Z,1016.22
2018-11-29T16:33:16.957Z,1016.21
2018-11-29T16:34:16.946Z,1016.17
2018-11-29T16:35:16.973Z,1016.12
2018-11-29T16:36:16.930Z,1016.19
2018-11-29T16:37:16.915Z,1016.18
2018-11-29T16:38:16.902Z,1016.16
2018-11-29T16:39:16.890Z,1016.12
2018-11-29T16:40:16.878Z,1016.26
2018-11-29T16:41:16.884Z,1016.23
2018-11-29T16:42:16.866Z,1016.16
2018-11-29T16:43:16.842Z,1016.22
2018-11-29T16:44:16.834Z,1016.30
2018-11-29T16:45:16.820Z,1016.24
2018-11-29T16:46:16.807Z,1016.17
2018-11-29T16:47:16.801Z,1016.17
2018-11-29T16:48:16.788Z,1016.21
2018-11-29T16:49:16.774Z,1016.10
2018-11-29T16:50:16.770Z,1016.15
2018-11-29T16:51:16.754Z,1016.04
2018-11-29T16:52:16.740Z,1015.98
2018-11-29T16:53:16.729Z,1016.01
2018-11-29T16:54:16.725Z,1015.86
2018-11-29T16:55:16.705Z,1015.88
2018-11-29T16:56:16.695Z,1015.96
2018-11-29T16:57:16.691Z,1015.94
2018-11-29T16:58:16.678Z,1015.81
2018-11-29T16:59:16.661Z,1015.79
2018-11-29T17:00:16.652Z,1016.03
2018-11-29T17:01:16.641Z,1015.70
2018-11-29T17:02:16.630Z,1015.92
2018-11-29T17:03:16.615Z,1015.88
2018-11-29T17:04:16.603Z,1015.76
2018-11-29T17:05:16.593Z,1015.75
2018-11-29T17:06:16.582Z,1015.77
2018-11-29T17:07:16.569Z,1015.77
2018-11-29T17:08:16.560Z,1015.65
2018-11-29T17:09:16.551Z,1015.66
2018-11-29T17:10:16.535Z,1015.54
2018-11-29T17:11:16.522Z,1015.52
2018-11-29T17:12:16.512Z,1015.64
2018-11-29T17:13:16.500Z,1015.55
2018-11-29T17:14:16.488Z,1015.54
2018-11-29T17:15:16.480Z,1015.70
2018-11-29T17:16:16.466Z,1015.76
2018-11-29T17:17:16.456Z,1015.74
2018-11-29T17:18:16.445Z,1015.74
2018-11-29T17:19:16.434Z,1015.74
2018-11-29T17:20:16.422Z,1015.60
2018-11-29T17:21:16.411Z,1015.60
2018-11-29T17:22:16.399Z,1015.80
2018-11-29T17:23:16.389Z,1015.63
2018-11-29T17:24:16.381Z,1015.64
2018-11-29T17:25:16.367Z,1015.68
2018-11-29T17:26:16.362Z,1015.75
2018-11-29T17:27:16.348Z,1015.73
2018-11-29T17:28:16.337Z,1015.65
2018-11-29T17:29:16.321Z,1015.71
2018-11-29T17:30:16.319Z,1015.67
2018-11-29T17:31:16.305Z,1015.58
2018-11-29T17:32:16.292Z,1015.75
2018-11-29T17:33:16.361Z,1015.57
2018-11-29T17:34:16.262Z,1015.64
2018-11-29T17:35:16.256Z,1015.57
2018-11-29T17:36:16.254Z,1015.58
2018-11-29T17:37:16.230Z,1015.60
2018-11-29T17:38:16.221Z,1015.49
2018-11-29T17:39:16.215Z,1015.53
2018-11-29T17:40:16.203Z,1015.55
2018-11-29T17:41:16.186Z,1015.55
2018-11-29T17:42:16.173Z,1015.53
2018-11-29T17:43:16.163Z,1015.57
2018-11-29T17:44:16.156Z,1015.42
2018-11-29T17:45:16.140Z,1015.52
2018-11-29T17:46:16.131Z,1015.57
2018-11-29T17:47:16.119Z,1015.58
2018-11-29T17:48:16.107Z,1015.49
2018-11-29T17:49:16.097Z,1015.59
2018-11-29T17:50:16.091Z,1015.54
2018-11-29T17:51:16.074Z,1015.58
2018-11-29T17:52:16.063Z,1015.59
2018-11-29T17:53:16.051Z,1015.56
2018-11-29T17:54:16.045Z,1015.64
2018-11-29T17:55:16.032Z,1015.53
2018-11-29T17:56:16.022Z,1015.59
2018-11-29T17:57:16.008Z,1015.58
2018-11-29T17:58:15.998Z,1015.57
2018-11-29T17:59:15.984Z,1015.77
2018-11-29T18:00:15.975Z,1015.67
2018-11-29T18:01:15.966Z,1015.55
2018-11-29T18:02:15.956Z,1015.51
2018-11-29T18:03:15.942Z,1015.54
2018-11-29T18:04:15.930Z,1015.51
2018-11-29T18:05:16.028Z,1015.48
2018-11-29T18:06:15.910Z,1015.58
2018-11-29T18:07:15.899Z,1015.45
2018-11-29T18:08:15.891Z,1015.58
2018-11-29T18:09:15.877Z,1015.57
2018-11-29T18:10:15.868Z,1015.42
2018-11-29T18:11:15.852Z,1015.47
2018-11-29T18:12:15.845Z,1015.46
2018-11-29T18:13:15.830Z,1015.54
2018-11-29T18:14:15.819Z,1015.41
2018-11-29T18:15:15.807Z,1015.44
2018-11-29T18:16:15.801Z,1015.47
2018-11-29T18:17:15.785Z,1015.52
2018-11-29T18:18:15.775Z,1015.37
2018-11-29T18:19:15.764Z,1015.35
2018-11-29T18:20:15.755Z,1015.34
2018-11-29T18:21:15.745Z,1015.51
2018-11-29T18:22:15.729Z,1015.38
2018-11-29T18:23:15.721Z,1015.30
2018-11-29T18:24:15.708Z,1015.36
2018-11-29T18:25:15.695Z,1015.25
2018-11-29T18:26:15.684Z,1015.33
2018-11-29T18:27:15.674Z,1015.33
2018-11-29T18:28:15.664Z,1015.30
2018-11-29T18:29:15.650Z,1015.28
2018-11-29T18:30:15.638Z,1015.29
2018-11-29T18:31:15.631Z,1015.31
2018-11-29T18:32:15.616Z,1015.27
2018-11-29T18:33:15.605Z,1015.26
2018-11-29T18:34:15.593Z,1015.19
2018-11-29T18:35:15.584Z,1015.27
2018-11-29T18:36:15.691Z,1015.25
2018-11-29T18:37:15.558Z,1015.21
2018-11-29T18:38:15.551Z,1015.10
2018-11-29T18:39:15.537Z,1015.16
2018-11-29T18:40:15.527Z,1015.13
2018-11-29T18:41:15.514Z,1015.16
2018-11-29T18:42:15.507Z,1015.15
2018-11-29T18:43:15.494Z,1015.22
2018-11-29T18:44:15.484Z,1015.41
2018-11-29T18:45:15.476Z,1015.12
2018-11-29T18:46:17.289Z,1015.23